createdAt,value
2022-11-24T00:00:14.103Z,98468.09
2022-11-24T00:02:16.870Z,98461.09
2022-11-24T00:04:19.648Z,98469.19
2022-11-24T00:06:23.146Z,98471.06
2022-11-24T00:08:25.911Z,98458.66
2022-11-24T00:10:28.589Z,98464.59
2022-11-24T00:12:31.325Z,98457.84
2022-11-24T00:14:34.116Z,98467.53
2022-11-24T00:16:38.302Z,98475.63
2022-11-24T00:18:42.702Z,98456.22
2022-11-24T00:20:52.807Z,98459.22
2022-11-24T00:22:56.240Z,98458.13
2022-11-24T00:24:58.955Z,98458.41
2022-11-24T00:27:01.588Z,98471.88
2022-11-24T00:29:06.550Z,98471.03
2022-11-24T00:31:24.054Z,98467.84
2022-11-24T00:33:26.955Z,98470.53
2022-11-24T00:35:29.641Z,98470.25
2022-11-24T00:37:32.380Z,98472.41
2022-11-24T00:39:35.032Z,98462.69
2022-11-24T00:41:37.844Z,98462.69
2022-11-24T00:43:40.625Z,98477.25
2022-11-24T00:45:43.694Z,98476.97
2022-11-24T00:47:46.407Z,98475.38
2022-11-24T00:49:49.265Z,98484.53
2022-11-24T00:51:52.095Z,98478.88
2022-11-24T00:53:56.604Z,98481.00
2022-11-24T00:55:59.724Z,98475.63
2022-11-24T00:58:02.527Z,98486.66
2022-11-24T01:00:06.029Z,98476.44
2022-11-24T01:02:08.876Z,98479.38
2022-11-24T01:04:11.693Z,98479.66
2022-11-24T01:06:17.380Z,98483.97
2022-11-24T01:08:20.221Z,98479.63
2022-11-24T01:10:22.952Z,98500.91
2022-11-24T01:12:25.632Z,98493.09
2022-11-24T01:14:29.171Z,98494.44
2022-11-24T01:16:34.645Z,98504.13
2022-11-24T01:18:37.389Z,98502.75
2022-11-24T01:20:40.172Z,98499.53
2022-11-24T01:22:42.952Z,98499.81
2022-11-24T01:24:46.045Z,98504.09
2022-11-24T01:26:48.864Z,98507.88
2022-11-24T01:28:58.610Z,98507.59
2022-11-24T01:31:03.159Z,98504.34
2022-11-24T01:33:06.294Z,98510.28
2022-11-24T01:35:09.984Z,98510.53
2022-11-24T01:37:12.784Z,98507.03
2022-11-24T01:39:15.624Z,98511.34
2022-11-24T01:41:23.954Z,98512.66
2022-11-24T01:43:26.620Z,98514.56
2022-11-24T01:45:35.446Z,98517.53
2022-11-24T01:47:43.782Z,98524.78
2022-11-24T01:49:54.622Z,98524.78
2022-11-24T01:52:23.238Z,98528.31
2022-11-24T01:54:30.816Z,98520.72
2022-11-24T01:56:37.084Z,98525.03
2022-11-24T01:58:44.151Z,98521.50
2022-11-24T02:00:46.929Z,98532.25
2022-11-24T02:02:49.915Z,98537.38
2022-11-24T02:04:53.305Z,98539.53
2022-11-24T02:07:00.277Z,98537.88
2022-11-24T02:09:17.461Z,98550.53
2022-11-24T02:11:23.951Z,98550.78
2022-11-24T02:13:26.756Z,98546.25
2022-11-24T02:15:29.878Z,98549.44
2022-11-24T02:17:32.776Z,98547.03
2022-11-24T02:20:00.049Z,98551.28
2022-11-24T02:22:04.199Z,98544.31
2022-11-24T02:24:19.405Z,98558.53
2022-11-24T02:26:40.494Z,98551.81
2022-11-24T02:28:43.357Z,98559.34
2022-11-24T02:30:46.402Z,98560.94
2022-11-24T02:32:49.305Z,98554.47
2022-11-24T02:35:01.544Z,98558.78
2022-11-24T02:37:04.364Z,98562.25
2022-11-24T02:39:14.548Z,98562.00
2022-11-24T02:41:20.800Z,98567.41
2022-11-24T02:43:24.702Z,98563.34
2022-11-24T02:45:28.832Z,98566.56
2022-11-24T02:47:31.509Z,98569.53
2022-11-24T02:49:34.291Z,98571.13
2022-11-24T02:51:36.912Z,98573.03
2022-11-24T02:53:39.620Z,98574.34
2022-11-24T02:55:42.292Z,98571.91
2022-11-24T02:57:44.892Z,98579.19
2022-11-24T02:59:47.571Z,98576.25
2022-11-24T03:01:50.520Z,98571.41
2022-11-24T03:03:53.202Z,98578.94
2022-11-24T03:05:55.978Z,98576.50
2022-11-24T03:07:58.630Z,98581.63
2022-11-24T03:10:01.403Z,98574.31
2022-11-24T03:12:04.436Z,98575.13
2022-11-24T03:14:07.707Z,98581.06
2022-11-24T03:16:10.820Z,98579.19
2022-11-24T03:18:13.481Z,98588.84
2022-11-24T03:20:16.513Z,98585.09
2022-11-24T03:22:19.237Z,98583.75
2022-11-24T03:24:21.948Z,98591.84
2022-11-24T03:26:26.126Z,98588.91
2022-11-24T03:28:28.841Z,98595.09
2022-11-24T03:30:31.534Z,98589.72
2022-11-24T03:32:34.641Z,98583.53
2022-11-24T03:34:37.377Z,98594.22
2022-11-24T03:36:40.158Z,98584.00
2022-11-24T03:38:43.136Z,98591.28
2022-11-24T03:40:45.770Z,98592.56
2022-11-24T03:42:48.468Z,98594.16
2022-11-24T03:44:51.194Z,98596.88
2022-11-24T03:46:53.952Z,98599.34
2022-11-24T03:48:57.029Z,98590.94
2022-11-24T03:51:02.086Z,98601.13
2022-11-24T03:53:04.685Z,98601.66
2022-11-24T03:55:07.701Z,98605.94
2022-11-24T03:57:10.555Z,98610.75
2022-11-24T03:59:13.276Z,98621.56
2022-11-24T04:01:16.098Z,98627.44
2022-11-24T04:03:19.433Z,98620.72
2022-11-24T04:05:22.054Z,98623.16
2022-11-24T04:07:24.902Z,98624.78
2022-11-24T04:09:27.511Z,98620.47
2022-11-24T04:11:48.631Z,98620.22
2022-11-24T04:13:51.269Z,98628.00
2022-11-24T04:15:54.516Z,98625.31
2022-11-24T04:17:58.411Z,98619.38
2022-11-24T04:20:01.190Z,98625.84
2022-11-24T04:22:04.624Z,98617.22
2022-11-24T04:24:07.356Z,98630.94
2022-11-24T04:26:10.039Z,98636.06
2022-11-24T04:28:12.840Z,98645.19
2022-11-24T04:30:15.785Z,98638.19
2022-11-24T04:32:18.790Z,98632.81
2022-11-24T04:34:21.420Z,98647.34
2022-11-24T04:36:24.010Z,98650.22
2022-11-24T04:39:19.709Z,98649.97
2022-11-24T04:40:49.302Z,98660.47
2022-11-24T04:42:55.636Z,98660.22
2022-11-24T04:44:58.316Z,98658.28
2022-11-24T04:47:01.569Z,98659.91
2022-11-24T04:49:04.386Z,98664.75
2022-11-24T04:51:07.615Z,98669.03
2022-11-24T04:53:11.581Z,98671.75
2022-11-24T04:55:14.253Z,98676.88
2022-11-24T04:57:18.272Z,98676.03
2022-11-24T04:59:21.082Z,98689.47
2022-11-24T05:01:23.974Z,98687.06
2022-11-24T05:03:26.632Z,98692.44
2022-11-24T05:05:29.213Z,98690.00
2022-11-24T05:07:32.084Z,98691.38
2022-11-24T05:09:58.115Z,98698.09
2022-11-24T05:11:57.745Z,98703.25
2022-11-24T05:14:02.285Z,98700.56
2022-11-24T05:16:06.000Z,98708.63
2022-11-24T05:18:12.890Z,98708.94
2022-11-24T05:20:16.044Z,98706.16
2022-11-24T05:22:19.161Z,98698.34
2022-11-24T05:24:21.989Z,98700.50
2022-11-24T05:26:25.239Z,98705.59
2022-11-24T05:28:29.350Z,98714.25
2022-11-24T05:30:33.383Z,98711.78
2022-11-24T05:32:36.491Z,98728.19
2022-11-24T05:34:39.418Z,98719.06
2022-11-24T05:36:54.597Z,98728.50
2022-11-24T05:38:57.748Z,98729.31
2022-11-24T05:41:05.655Z,98738.19
2022-11-24T05:43:16.628Z,98737.13
2022-11-24T05:45:21.818Z,98743.56
2022-11-24T05:47:25.069Z,98739.28
2022-11-24T05:49:27.838Z,98736.59
2022-11-24T05:51:31.292Z,98744.09
2022-11-24T05:53:34.323Z,98752.19
2022-11-24T05:55:38.209Z,98752.75
2022-11-24T05:57:41.796Z,98748.44
2022-11-24T05:59:45.433Z,98754.38
2022-11-24T06:01:48.878Z,98750.56
2022-11-24T06:03:51.982Z,98754.88
2022-11-24T06:05:55.042Z,98775.88
2022-11-24T06:07:59.734Z,98769.19
2022-11-24T06:10:02.365Z,98782.38
2022-11-24T06:12:12.720Z,98771.13
2022-11-24T06:14:15.381Z,98783.00
2022-11-24T06:16:18.056Z,98776.53
2022-11-24T06:18:20.633Z,98778.75
2022-11-24T06:20:27.196Z,98784.69
2022-11-24T06:22:34.156Z,98797.06
2022-11-24T06:24:37.153Z,98804.03
2022-11-24T06:26:39.859Z,98810.81
2022-11-24T06:28:42.519Z,98823.38
2022-11-24T06:30:45.993Z,98806.72
2022-11-24T06:32:49.858Z,98809.41
2022-11-24T06:34:52.765Z,98810.59
2022-11-24T06:36:55.553Z,98820.88
2022-11-24T06:38:58.298Z,98816.53
2022-11-24T06:41:06.838Z,98812.28
2022-11-24T06:43:09.509Z,98815.81
2022-11-24T06:45:12.120Z,98815.38
2022-11-24T06:47:15.748Z,98824.25
2022-11-24T06:49:18.426Z,98818.81
2022-11-24T06:51:21.159Z,98817.75
2022-11-24T06:53:23.981Z,98823.44
2022-11-24T06:55:26.722Z,98821.56
2022-11-24T06:57:31.385Z,98822.13
2022-11-24T06:59:34.245Z,98829.19
2022-11-24T07:01:36.893Z,98825.72
2022-11-24T07:03:39.665Z,98830.63
2022-11-24T07:05:43.683Z,98836.38
2022-11-24T07:07:46.456Z,98831.84
2022-11-24T07:09:49.295Z,98844.28
2022-11-24T07:11:51.959Z,98845.41
2022-11-24T07:13:59.706Z,98851.00
2022-11-24T07:16:20.525Z,98867.63
2022-11-24T07:18:23.261Z,98868.38
2022-11-24T07:20:25.924Z,98872.94
2022-11-24T07:22:28.665Z,98868.88
2022-11-24T07:24:31.374Z,98872.13
2022-11-24T07:26:37.534Z,98878.00
2022-11-24T07:28:40.543Z,98881.22
2022-11-24T07:30:43.219Z,98878.75
2022-11-24T07:32:46.244Z,98866.94
2022-11-24T07:34:48.854Z,98873.19
2022-11-24T07:36:51.624Z,98881.25
2022-11-24T07:38:54.360Z,98867.50
2022-11-24T07:41:08.529Z,98875.03
2022-11-24T07:43:14.661Z,98876.91
2022-11-24T07:45:21.686Z,98861.81
2022-11-24T07:47:24.436Z,98869.44
2022-11-24T07:49:27.102Z,98873.50
2022-11-24T07:51:29.911Z,98871.59
2022-11-24T07:53:33.821Z,98872.97
2022-11-24T07:55:36.496Z,98882.97
2022-11-24T07:57:39.074Z,98883.50
2022-11-24T07:59:41.738Z,98890.00
2022-11-24T08:01:44.325Z,98891.06
2022-11-24T08:03:47.633Z,98887.56
2022-11-24T08:08:23.596Z,98906.84
2022-11-24T08:10:26.265Z,98903.63
2022-11-24T08:12:28.879Z,98914.41
2022-11-24T08:14:31.843Z,98909.78
2022-11-24T08:16:34.721Z,98913.44
2022-11-24T08:18:38.032Z,98904.75
2022-11-24T08:20:40.670Z,98919.03
2022-11-24T08:22:43.277Z,98913.84
2022-11-24T08:24:48.736Z,98916.59
2022-11-24T08:26:51.397Z,98919.28
2022-11-24T08:28:58.940Z,98916.53
2022-11-24T08:31:06.267Z,98916.47
2022-11-24T08:33:08.984Z,98933.66
2022-11-24T08:35:14.410Z,98934.75
2022-11-24T08:37:17.378Z,98934.75
2022-11-24T08:39:20.513Z,98929.66
2022-11-24T08:41:23.253Z,98937.03
2022-11-24T08:43:25.907Z,98926.75
2022-11-24T08:45:30.757Z,98934.34
2022-11-24T08:47:33.571Z,98934.72
2022-11-24T08:49:37.527Z,98931.72
2022-11-24T08:51:40.789Z,98932.47
2022-11-24T08:53:44.023Z,98929.91
2022-11-24T08:55:46.834Z,98931.28
2022-11-24T08:57:49.434Z,98938.59
2022-11-24T08:59:52.152Z,98938.47
2022-11-24T09:01:54.956Z,98929.91
2022-11-24T09:03:58.116Z,98936.66
2022-11-24T09:06:01.343Z,98942.81
2022-11-24T09:08:04.565Z,98940.19
2022-11-24T09:10:07.814Z,98943.06
2022-11-24T09:12:14.369Z,98939.56
2022-11-24T09:14:17.316Z,98947.06
2022-11-24T09:16:26.193Z,98949.69
2022-11-24T09:18:30.390Z,98954.50
2022-11-24T09:20:33.547Z,98954.25
2022-11-24T09:22:38.251Z,98964.03
2022-11-24T09:24:40.922Z,98950.59
2022-11-24T09:26:47.697Z,98956.16
2022-11-24T09:28:54.606Z,98959.56
2022-11-24T09:31:01.808Z,98965.34
2022-11-24T09:33:04.601Z,98968.34
2022-11-24T09:35:07.538Z,98966.16
2022-11-24T09:37:10.139Z,98971.44
2022-11-24T09:39:12.833Z,98968.44
2022-11-24T09:41:46.039Z,98970.03
2022-11-24T09:44:09.088Z,98962.38
2022-11-24T09:46:18.876Z,98974.50
2022-11-24T09:48:29.668Z,98976.09
2022-11-24T09:50:37.636Z,98968.91
2022-11-24T09:52:43.182Z,98976.28
2022-11-24T09:54:55.636Z,98980.13
2022-11-24T09:57:01.353Z,98977.16
2022-11-24T09:59:15.950Z,98990.88
2022-11-24T10:01:20.446Z,98983.63
2022-11-24T10:03:45.425Z,98991.91
2022-11-24T10:05:51.218Z,98999.50
2022-11-24T10:08:22.974Z,98996.75
2022-11-24T10:10:38.011Z,99000.28
2022-11-24T10:13:01.922Z,99003.44
2022-11-24T10:15:29.464Z,99009.97
2022-11-24T10:18:16.177Z,99007.28
2022-11-24T10:20:26.909Z,99014.03
2022-11-24T10:22:46.801Z,99019.41
2022-11-24T10:25:10.415Z,99022.31
2022-11-24T10:27:25.484Z,99024.44
2022-11-24T10:29:37.993Z,99021.19
2022-11-24T10:31:46.137Z,99018.78
2022-11-24T10:33:49.223Z,99024.72
2022-11-24T10:35:55.056Z,99026.25
2022-11-24T10:38:21.898Z,99030.97
2022-11-24T10:41:00.253Z,99030.09
2022-11-24T10:43:03.031Z,99038.03
2022-11-24T10:45:13.804Z,99036.19
2022-11-24T10:47:20.205Z,99037.97
2022-11-24T10:49:29.697Z,99045.63
2022-11-24T10:51:58.217Z,99046.66
2022-11-24T10:54:22.587Z,99050.81
2022-11-24T10:56:25.403Z,99051.63
2022-11-24T10:58:37.315Z,99053.41
2022-11-24T11:00:40.939Z,99052.50
2022-11-24T11:02:43.587Z,99059.63
2022-11-24T11:04:46.237Z,99058.03
2022-11-24T11:06:48.880Z,99057.28
2022-11-24T11:09:17.753Z,99065.50
2022-11-24T11:11:28.620Z,99059.91
2022-11-24T11:13:32.492Z,99062.81
2022-11-24T11:15:35.721Z,99064.91
2022-11-24T11:17:39.661Z,99069.47
2022-11-24T11:19:49.845Z,99066.66
2022-11-24T11:22:20.719Z,99072.09
2022-11-24T11:24:23.369Z,99078.28
2022-11-24T11:26:27.594Z,99068.72
2022-11-24T11:28:30.489Z,99073.41
2022-11-24T11:35:26.697Z,99088.75
2022-11-24T11:37:33.140Z,99082.22
2022-11-24T11:39:48.415Z,99082.38
2022-11-24T11:42:07.282Z,99087.00
2022-11-24T11:44:29.877Z,99081.16
2022-11-24T11:46:33.450Z,99085.72
2022-11-24T11:48:43.091Z,99088.97
2022-11-24T11:51:22.436Z,99094.69
2022-11-24T11:54:00.092Z,99090.56
2022-11-24T11:56:26.313Z,99099.09
2022-11-24T11:58:47.585Z,99100.41
2022-11-24T12:01:30.629Z,99103.56
2022-11-24T12:04:04.422Z,99103.78
2022-11-24T12:06:16.897Z,99106.84
2022-11-24T12:09:11.681Z,99113.25
2022-11-24T12:11:34.596Z,99114.06
2022-11-24T12:13:48.737Z,99115.13
2022-11-24T12:15:56.526Z,99111.94
2022-11-24T12:18:56.484Z,99116.28
2022-11-24T12:21:40.397Z,99110.47
2022-11-24T12:24:04.084Z,99117.72
2022-11-24T12:26:42.167Z,99121.19
2022-11-24T12:29:14.016Z,99129.47
2022-11-24T12:31:45.966Z,99126.44
2022-11-24T12:34:16.342Z,99141.75
2022-11-24T12:36:45.965Z,99143.50
2022-11-24T12:39:00.714Z,99139.28
2022-11-24T12:43:56.865Z,99155.63
2022-11-24T12:46:11.166Z,99148.16
2022-11-24T12:48:36.072Z,99146.84
2022-11-24T12:50:41.673Z,99150.34
2022-11-24T12:53:08.578Z,99153.28
2022-11-24T12:55:32.407Z,99154.19
2022-11-24T12:58:10.596Z,99143.34
2022-11-24T13:00:23.844Z,99151.28
2022-11-24T13:03:03.500Z,99156.66
2022-11-24T13:05:26.426Z,99173.56
2022-11-24T13:07:47.007Z,99165.53
2022-11-24T13:10:53.654Z,99169.59
2022-11-24T13:13:13.857Z,99174.66
2022-11-24T13:15:43.540Z,99182.94
2022-11-24T13:18:01.429Z,99184.44
2022-11-24T13:20:20.575Z,99184.81
2022-11-24T13:22:25.815Z,99191.22
2022-11-24T13:24:31.463Z,99194.38
2022-11-24T13:26:43.125Z,99195.78
2022-11-24T13:29:09.241Z,99197.41
2022-11-24T13:31:23.415Z,99194.47
2022-11-24T13:33:33.110Z,99197.75
2022-11-24T13:35:35.712Z,99197.84
2022-11-24T13:37:38.277Z,99197.03
2022-11-24T13:39:52.237Z,99197.03
2022-11-24T13:41:55.006Z,99199.72
2022-11-24T13:44:15.724Z,99210.47
2022-11-24T13:47:03.283Z,99217.34
2022-11-24T13:49:14.441Z,99215.63
2022-11-24T13:51:23.953Z,99211.19
2022-11-24T13:53:35.226Z,99209.69
2022-11-24T13:55:40.399Z,99210.03
2022-11-24T13:57:54.470Z,99213.56
2022-11-24T14:00:01.774Z,99214.94
2022-11-24T14:02:23.021Z,99221.44
2022-11-24T14:04:31.012Z,99209.09
2022-11-24T14:06:59.016Z,99226.81
2022-11-24T14:09:36.170Z,99217.97
2022-11-24T14:11:39.493Z,99219.84
2022-11-24T14:13:42.239Z,99223.94
2022-11-24T14:15:45.378Z,99220.44
2022-11-24T14:17:48.257Z,99229.78
2022-11-24T14:19:53.784Z,99232.09
2022-11-24T14:21:56.386Z,99240.75
2022-11-24T14:24:10.627Z,99240.75
2022-11-24T14:26:40.349Z,99246.22
2022-11-24T14:28:45.546Z,99248.91
2022-11-24T14:30:48.199Z,99247.03
2022-11-24T14:33:19.670Z,99251.59
2022-11-24T14:35:31.464Z,99244.81
2022-11-24T14:37:34.269Z,99249.84
2022-11-24T14:39:42.037Z,99254.88
2022-11-24T14:42:11.389Z,99252.41
2022-11-24T14:44:24.428Z,99253.69
2022-11-24T14:46:27.146Z,99249.97
2022-11-24T14:48:39.168Z,99252.88
2022-11-24T14:50:41.706Z,99250.09
2022-11-24T14:52:56.021Z,99246.00
2022-11-24T14:55:21.280Z,99261.03
2022-11-24T14:57:30.641Z,99270.97
2022-11-24T14:59:39.717Z,99268.28
2022-11-24T15:01:42.510Z,99266.41
2022-11-24T15:03:45.521Z,99261.50
2022-11-24T15:06:01.188Z,99266.66
2022-11-24T15:08:04.498Z,99269.47
2022-11-24T15:10:33.983Z,99273.31
2022-11-24T15:12:40.155Z,99265.25
2022-11-24T15:15:15.160Z,99272.47
2022-11-24T15:17:22.339Z,99277.84
2022-11-24T15:19:33.678Z,99278.78
2022-11-24T15:21:37.559Z,99275.84
2022-11-24T15:23:42.162Z,99276.91
2022-11-24T15:25:45.192Z,99283.91
2022-11-24T15:27:47.764Z,99285.91
2022-11-24T15:29:50.655Z,99284.06
2022-11-24T15:31:53.383Z,99287.78
2022-11-24T15:33:58.891Z,99289.97
2022-11-24T15:36:01.464Z,99293.50
2022-11-24T15:38:04.141Z,99288.84
2022-11-24T15:40:07.525Z,99292.66
2022-11-24T15:42:12.416Z,99289.66
2022-11-24T15:44:15.011Z,99296.41
2022-11-24T15:46:17.730Z,99293.13
2022-11-24T15:48:20.644Z,99298.03
2022-11-24T15:50:24.084Z,99303.66
2022-11-24T15:52:26.801Z,99304.25
2022-11-24T15:54:29.826Z,99306.34
2022-11-24T15:56:35.053Z,99305.28
2022-11-24T15:58:37.818Z,99305.28
2022-11-24T16:00:41.299Z,99311.72
2022-11-24T16:02:47.468Z,99317.88
2022-11-24T16:04:50.162Z,99313.34
2022-11-24T16:06:52.780Z,99321.38
2022-11-24T16:08:55.591Z,99323.25
2022-11-24T16:10:58.367Z,99327.22
2022-11-24T16:13:01.117Z,99327.34
2022-11-24T16:15:04.085Z,99327.69
2022-11-24T16:17:07.014Z,99326.28
2022-11-24T16:19:10.837Z,99331.66
2022-11-24T16:21:13.630Z,99337.72
2022-11-24T16:23:16.382Z,99341.91
2022-11-24T16:25:19.042Z,99333.94
2022-11-24T16:27:21.923Z,99335.94
2022-11-24T16:29:25.085Z,99333.25
2022-11-24T16:31:29.055Z,99333.59
2022-11-24T16:33:32.271Z,99328.81
2022-11-24T16:35:36.311Z,99333.16
2022-11-24T16:37:39.128Z,99346.09
2022-11-24T16:39:46.962Z,99343.09
2022-11-24T16:41:52.475Z,99342.03
2022-11-24T16:43:55.044Z,99345.88
2022-11-24T16:46:21.529Z,99351.84
2022-11-24T16:48:24.357Z,99355.09
2022-11-24T16:50:27.653Z,99354.66
2022-11-24T16:52:30.330Z,99358.16
2022-11-24T16:54:33.266Z,99355.09
2022-11-24T16:56:36.065Z,99360.03
2022-11-24T16:58:40.786Z,99368.41
2022-11-24T17:00:44.079Z,99370.66
2022-11-24T17:02:47.103Z,99369.59
2022-11-24T17:04:52.630Z,99368.78
2022-11-24T17:06:55.238Z,99372.66
2022-11-24T17:08:58.026Z,99373.34
2022-11-24T17:11:07.857Z,99384.63
2022-11-24T17:13:10.525Z,99381.13
2022-11-24T17:17:37.527Z,99381.13
2022-11-24T17:19:40.142Z,99387.09
2022-11-24T17:21:42.785Z,99394.34
2022-11-24T17:23:45.630Z,99387.56
2022-11-24T17:25:48.960Z,99388.59
2022-11-24T17:27:51.972Z,99391.75
2022-11-24T17:29:54.585Z,99388.72
2022-11-24T17:31:57.805Z,99397.34
2022-11-24T17:34:01.644Z,99400.28
2022-11-24T17:36:05.809Z,99392.91
2022-11-24T17:38:08.514Z,99395.47
2022-11-24T17:40:27.866Z,99396.06
2022-11-24T17:42:31.552Z,99400.84
2022-11-24T17:44:35.451Z,99405.97
2022-11-24T17:46:39.311Z,99396.06
2022-11-24T17:48:41.980Z,99402.47
2022-11-24T17:50:44.604Z,99406.22
2022-11-24T17:52:47.216Z,99408.06
2022-11-24T17:54:49.889Z,99414.47
2022-11-24T17:56:52.480Z,99410.53
2022-11-24T17:59:00.388Z,99409.34
2022-11-24T18:01:03.197Z,99413.53
2022-11-24T18:03:05.878Z,99410.88
2022-11-24T18:05:08.946Z,99419.34
2022-11-24T18:07:11.593Z,99427.41
2022-11-24T18:09:14.296Z,99425.78
2022-11-24T18:11:28.882Z,99418.41
2022-11-24T18:13:55.895Z,99432.41
2022-11-24T18:16:00.498Z,99438.00
2022-11-24T18:18:04.541Z,99436.00
2022-11-24T18:20:08.094Z,99440.78
2022-11-24T18:22:10.881Z,99437.66
2022-11-24T18:24:14.278Z,99443.91
2022-11-24T18:26:17.910Z,99452.56
2022-11-24T18:28:21.029Z,99461.28
2022-11-24T18:30:23.687Z,99451.81
2022-11-24T18:32:26.286Z,99463.44
2022-11-24T18:34:28.941Z,99470.09
2022-11-24T18:36:31.895Z,99461.81
2022-11-24T18:38:37.645Z,99458.81
2022-11-24T18:40:40.984Z,99474.25
2022-11-24T18:42:43.655Z,99472.91
2022-11-24T18:44:49.836Z,99479.47
2022-11-24T18:46:55.399Z,99479.47
2022-11-24T18:48:58.119Z,99476.66
2022-11-24T18:51:00.766Z,99488.03
2022-11-24T18:53:03.500Z,99484.69
2022-11-24T18:55:06.652Z,99489.59
2022-11-24T18:57:10.272Z,99483.41
2022-11-24T18:59:19.847Z,99483.88
2022-11-24T19:01:25.604Z,99476.06
2022-11-24T19:03:28.310Z,99494.16
2022-11-24T19:05:30.898Z,99485.28
2022-11-24T19:07:33.597Z,99485.38
2022-11-24T19:09:36.267Z,99491.09
2022-11-24T19:11:41.563Z,99488.66
2022-11-24T19:13:44.417Z,99492.50
2022-11-24T19:15:48.650Z,99489.59
2022-11-24T19:17:51.646Z,99493.25
2022-11-24T19:19:54.380Z,99491.16
2022-11-24T19:21:57.001Z,99490.94
2022-11-24T19:24:04.464Z,99499.78
2022-11-24T19:26:07.555Z,99490.72
2022-11-24T19:28:12.721Z,99495.16
2022-11-24T19:30:17.471Z,99497.63
2022-11-24T19:32:20.276Z,99501.13
2022-11-24T19:34:22.889Z,99498.44
2022-11-24T19:36:26.556Z,99507.53
2022-11-24T19:38:30.982Z,99508.38
2022-11-24T19:40:33.677Z,99510.81
2022-11-24T19:42:36.305Z,99512.91
2022-11-24T19:44:38.941Z,99519.09
2022-11-24T19:46:41.492Z,99519.09
2022-11-24T19:48:46.675Z,99521.56
2022-11-24T19:50:49.713Z,99525.88
2022-11-24T19:52:52.345Z,99528.09
2022-11-24T19:54:54.906Z,99522.72
2022-11-24T19:56:57.540Z,99529.16
2022-11-24T19:59:00.118Z,99530.63
2022-11-24T20:01:11.957Z,99541.16
2022-11-24T20:03:14.908Z,99534.13
2022-11-24T20:05:17.414Z,99543.09
2022-11-24T20:07:20.622Z,99537.50
2022-11-24T20:09:23.357Z,99539.59
2022-11-24T20:11:26.531Z,99539.59
2022-11-24T20:13:29.127Z,99545.19
2022-11-24T20:15:31.983Z,99544.97
2022-11-24T20:17:34.574Z,99555.47
2022-11-24T20:19:37.192Z,99556.06
2022-11-24T20:21:41.681Z,99560.63
2022-11-24T20:23:46.114Z,99565.97
2022-11-24T20:25:48.673Z,99563.75
2022-11-24T20:27:51.336Z,99565.78
2022-11-24T20:29:53.987Z,99574.63
2022-11-24T20:31:56.797Z,99560.16
2022-11-24T20:34:01.234Z,99564.09
2022-11-24T20:36:12.253Z,99577.31
2022-11-24T20:38:14.871Z,99576.50
2022-11-24T20:40:17.613Z,99581.41
2022-11-24T20:42:20.245Z,99585.13
2022-11-24T20:44:25.066Z,99583.28
2022-11-24T20:46:31.130Z,99589.66
2022-11-24T20:48:35.022Z,99584.16
2022-11-24T20:50:38.225Z,99590.94
2022-11-24T20:52:41.072Z,99591.16
2022-11-24T20:54:46.873Z,99585.56
2022-11-24T20:56:49.452Z,99589.31
2022-11-24T20:58:52.801Z,99604.56
2022-11-24T21:00:55.519Z,99594.91
2022-11-24T21:02:58.709Z,99587.66
2022-11-24T21:05:01.775Z,99595.50
2022-11-24T21:07:06.180Z,99581.94
2022-11-24T21:09:10.024Z,99593.63
2022-11-24T21:11:14.211Z,99601.88
2022-11-24T21:13:16.749Z,99601.31
2022-11-24T21:15:19.300Z,99601.31
2022-11-24T21:17:22.010Z,99603.16
2022-11-24T21:19:24.673Z,99610.78
2022-11-24T21:21:35.249Z,99613.22
2022-11-24T21:23:38.000Z,99604.34
2022-11-24T21:25:40.652Z,99611.38
2022-11-24T21:27:43.219Z,99613.47
2022-11-24T21:29:45.860Z,99605.41
2022-11-24T21:31:48.854Z,99604.56
2022-11-24T21:33:54.003Z,99607.03
2022-11-24T21:36:04.781Z,99613.22
2022-11-24T21:38:07.334Z,99599.00
2022-11-24T21:40:10.426Z,99597.19
2022-11-24T21:42:13.148Z,99602.00
2022-11-24T21:44:15.869Z,99610.03
2022-11-24T21:46:18.515Z,99607.91
2022-11-24T21:48:21.329Z,99617.25
2022-11-24T21:50:24.074Z,99618.75
2022-11-24T21:52:26.623Z,99612.78
2022-11-24T21:54:29.468Z,99600.19
2022-11-24T21:56:32.102Z,99615.00
2022-11-24T21:58:34.754Z,99607.78
2022-11-24T22:00:37.365Z,99607.56
2022-11-24T22:02:40.043Z,99615.63
2022-11-24T22:04:42.700Z,99617.47
2022-11-24T22:06:45.421Z,99610.69
2022-11-24T22:08:48.992Z,99617.47
2022-11-24T22:10:52.167Z,99604.88
2022-11-24T22:12:54.835Z,99613.59
2022-11-24T22:14:57.403Z,99606.59
2022-11-24T22:17:00.078Z,99615.06
2022-11-24T22:19:03.156Z,99602.94
2022-11-24T22:21:07.917Z,99612.03
2022-11-24T22:23:10.533Z,99616.78
2022-11-24T22:25:13.201Z,99618.88
2022-11-24T22:27:15.744Z,99615.59
2022-11-24T22:29:18.374Z,99613.34
2022-11-24T22:31:23.732Z,99631.88
2022-11-24T22:33:26.500Z,99631.31
2022-11-24T22:35:29.058Z,99630.91
2022-11-24T22:37:31.756Z,99643.88
2022-11-24T22:39:34.350Z,99637.34
2022-11-24T22:41:36.979Z,99648.22
2022-11-24T22:43:41.017Z,99653.59
2022-11-24T22:45:43.686Z,99649.25
2022-11-24T22:47:46.907Z,99648.44
2022-11-24T22:49:49.586Z,99648.66
2022-11-24T22:51:52.250Z,99648.66
2022-11-24T22:53:57.638Z,99645.38
2022-11-24T22:56:04.781Z,99645.38
2022-11-24T22:58:07.424Z,99644.53
2022-11-24T23:00:10.519Z,99651.78
2022-11-24T23:02:13.118Z,99646.66
2022-11-24T23:04:16.048Z,99654.91
2022-11-24T23:06:22.022Z,99662.94
2022-11-24T23:08:24.651Z,99655.13
2022-11-24T23:10:27.250Z,99663.16
2022-11-24T23:12:29.895Z,99666.88
2022-11-24T23:14:32.706Z,99680.06
2022-11-24T23:16:35.634Z,99671.81
2022-11-24T23:18:39.456Z,99689.56
2022-11-24T23:20:42.030Z,99688.72
2022-11-24T23:22:44.745Z,99687.69
2022-11-24T23:24:47.478Z,99668.97
2022-11-24T23:26:50.153Z,99687.09
2022-11-24T23:28:53.049Z,99681.50
2022-11-24T23:31:04.127Z,99690.56
2022-11-24T23:33:06.754Z,99684.41
2022-11-24T23:35:13.600Z,99681.94
2022-11-24T23:37:16.623Z,99680.75
2022-11-24T23:39:19.261Z,99695.16
2022-11-24T23:41:25.352Z,99702.78
2022-11-24T23:43:27.938Z,99707.31
2022-11-24T23:45:30.590Z,99705.25
2022-11-24T23:47:33.193Z,99714.34
2022-11-24T23:49:35.865Z,99704.63
2022-11-24T23:51:42.112Z,99703.22
2022-11-24T23:53:45.470Z,99704.03
2022-11-24T23:55:55.695Z,99712.50
2022-11-24T23:57:58.380Z,99702.84
